createdAt,value
2023-04-05T00:01:55.596Z,99.90
2023-04-05T00:07:02.545Z,99.90
2023-04-05T00:12:08.864Z,99.90
2023-04-05T00:17:13.360Z,99.90
2023-04-05T00:22:25.671Z,99.90
2023-04-05T00:27:31.481Z,99.90
2023-04-05T00:32:36.840Z,99.90
2023-04-05T00:37:40.972Z,99.90
2023-04-05T00:42:46.476Z,99.90
2023-04-05T00:47:50.849Z,99.90
2023-04-05T00:52:54.962Z,99.90
2023-04-05T00:58:00.696Z,99.90
2023-04-05T01:03:07.864Z,99.90
2023-04-05T01:08:18.355Z,99.90
2023-04-05T01:13:25.616Z,99.90
2023-04-05T01:18:30.956Z,99.90
2023-04-05T01:23:45.689Z,99.90
2023-04-05T01:29:05.774Z,99.90
2023-04-05T01:34:18.647Z,99.90
2023-04-05T01:39:24.830Z,99.90
2023-04-05T01:44:29.917Z,99.90
2023-04-05T01:49:35.406Z,99.90
2023-04-05T01:54:39.647Z,99.90
2023-04-05T01:59:46.062Z,99.90
2023-04-05T02:04:51.542Z,99.90
2023-04-05T02:09:55.460Z,99.90
2023-04-05T02:14:59.241Z,99.90
2023-04-05T02:20:07.452Z,99.90
2023-04-05T02:25:16.244Z,99.90
2023-04-05T02:30:20.523Z,99.90
2023-04-05T02:35:26.466Z,99.90
2023-04-05T02:40:31.727Z,99.90
2023-04-05T02:45:36.772Z,99.90
2023-04-05T02:50:42.459Z,99.90
2023-04-05T02:55:54.155Z,99.90
2023-04-05T03:01:02.603Z,99.90
2023-04-05T03:06:11.364Z,99.90
2023-04-05T03:11:18.732Z,99.90
2023-04-05T03:16:28.691Z,99.90
2023-04-05T03:21:35.315Z,99.90
2023-04-05T03:26:47.034Z,99.90
2023-04-05T03:31:53.527Z,99.90
2023-04-05T03:37:01.381Z,99.90
2023-04-05T03:42:28.867Z,99.90
2023-04-05T03:47:33.289Z,99.90
2023-04-05T03:52:42.785Z,99.90
2023-04-05T03:57:48.156Z,99.90
2023-04-05T04:03:01.295Z,99.90
2023-04-05T04:08:07.138Z,99.90
2023-04-05T04:13:12.756Z,99.90
2023-04-05T04:18:17.087Z,99.90
2023-04-05T04:23:46.124Z,99.90
2023-04-05T04:29:18.626Z,99.90
2023-04-05T04:34:35.413Z,99.90
2023-04-05T04:39:49.424Z,99.90
2023-04-05T04:45:16.151Z,99.90
2023-04-05T04:50:23.443Z,99.90
2023-04-05T04:55:28.917Z,99.90
2023-04-05T05:00:32.882Z,99.90
2023-04-05T05:05:37.020Z,99.90
2023-04-05T05:10:43.087Z,99.90
2023-04-05T05:15:48.609Z,99.90
2023-04-05T05:20:53.038Z,99.90
2023-04-05T05:26:00.298Z,99.90
2023-04-05T05:31:04.678Z,99.90
2023-04-05T05:36:13.393Z,99.90
2023-04-05T05:41:18.781Z,99.90
2023-04-05T05:46:22.562Z,99.90
2023-04-05T05:51:26.394Z,99.90
2023-04-05T05:56:31.437Z,99.90
2023-04-05T06:01:38.437Z,99.90
2023-04-05T06:06:43.960Z,99.90
2023-04-05T06:11:56.517Z,99.90
2023-04-05T06:17:02.501Z,99.90
2023-04-05T06:22:06.436Z,99.90
2023-04-05T06:27:11.876Z,99.90
2023-04-05T06:32:15.621Z,99.90
2023-04-05T06:37:19.597Z,99.90
2023-04-05T06:42:26.478Z,99.90
2023-04-05T06:47:37.286Z,99.90
2023-04-05T06:52:42.226Z,99.90
2023-04-05T06:57:47.722Z,99.90
2023-04-05T07:02:51.740Z,99.90
2023-04-05T07:07:55.622Z,99.80
2023-04-05T07:13:00.923Z,99.70
2023-04-05T07:18:04.746Z,98.30
2023-04-05T07:23:08.478Z,96.70
2023-04-05T07:28:13.915Z,95.30
2023-04-05T07:33:17.788Z,95.00
2023-04-05T07:38:21.844Z,90.70
2023-04-05T07:43:26.968Z,87.00
2023-04-05T07:48:31.460Z,78.90
2023-04-05T07:53:36.505Z,68.50
2023-04-05T07:58:42.212Z,69.10
2023-04-05T08:03:46.148Z,69.70
2023-04-05T08:08:50.587Z,69.40
2023-04-05T08:13:55.905Z,69.00
2023-04-05T08:18:59.560Z,68.20
2023-04-05T08:24:03.580Z,67.20
2023-04-05T08:29:08.463Z,60.70
2023-04-05T08:34:12.203Z,63.00
2023-04-05T08:39:16.522Z,62.50
2023-04-05T08:44:25.078Z,60.70
2023-04-05T08:49:29.142Z,66.30
2023-04-05T08:54:33.002Z,61.10
2023-04-05T08:59:42.139Z,59.30
2023-04-05T09:04:49.336Z,55.30
2023-04-05T09:09:54.817Z,57.00
2023-04-05T09:15:02.163Z,58.60
2023-04-05T09:20:07.926Z,56.70
2023-04-05T09:25:12.899Z,56.10
2023-04-05T09:30:23.584Z,58.50
2023-04-05T09:35:30.183Z,65.70
2023-04-05T09:40:44.797Z,63.00
2023-04-05T09:45:52.226Z,57.30
2023-04-05T09:51:12.702Z,61.60
2023-04-05T09:56:18.144Z,62.70
2023-04-05T10:01:27.128Z,61.20
2023-04-05T10:06:38.661Z,65.50
2023-04-05T10:11:44.841Z,66.50
2023-04-05T10:16:59.138Z,65.40
2023-04-05T10:22:06.803Z,68.00
2023-04-05T10:27:18.033Z,69.30
2023-04-05T10:32:33.632Z,69.50
2023-04-05T10:37:50.050Z,67.00
2023-04-05T10:42:53.846Z,72.20
2023-04-05T10:48:07.063Z,68.50
2023-04-05T10:53:12.368Z,65.90
2023-04-05T10:58:16.255Z,66.90
2023-04-05T11:03:45.162Z,65.20
2023-04-05T11:08:51.424Z,64.40
2023-04-05T11:13:57.187Z,62.10
2023-04-05T11:19:02.227Z,64.80
2023-04-05T11:24:07.239Z,67.90
2023-04-05T11:29:11.865Z,65.00
2023-04-05T11:34:25.351Z,63.70
2023-04-05T11:39:29.885Z,61.30
2023-04-05T11:44:42.498Z,62.80
2023-04-05T11:49:50.406Z,65.70
2023-04-05T11:54:54.639Z,68.20
2023-04-05T11:59:58.715Z,69.30
2023-04-05T12:05:04.479Z,68.00
2023-04-05T12:10:14.091Z,67.90
2023-04-05T12:15:19.216Z,67.80
2023-04-05T12:20:25.849Z,67.60
2023-04-05T12:25:30.324Z,71.70
2023-04-05T12:30:37.965Z,69.20
2023-04-05T12:35:43.707Z,71.80
2023-04-05T12:40:48.081Z,64.30
2023-04-05T12:45:55.852Z,64.20
2023-04-05T12:51:05.483Z,63.10
2023-04-05T12:56:10.980Z,63.00
2023-04-05T13:01:15.557Z,64.80
2023-04-05T13:06:20.804Z,63.90
2023-04-05T13:11:25.581Z,68.40
2023-04-05T13:16:29.472Z,65.00
2023-04-05T13:21:34.761Z,67.70
2023-04-05T13:26:38.448Z,65.00
2023-04-05T13:31:42.442Z,64.90
2023-04-05T13:36:49.272Z,64.90
2023-04-05T13:41:52.969Z,65.70
2023-04-05T13:46:57.752Z,64.30
2023-04-05T13:52:03.167Z,63.40
2023-04-05T13:57:07.088Z,62.50
2023-04-05T14:02:11.883Z,61.60
2023-04-05T14:07:17.834Z,57.00
2023-04-05T14:12:21.798Z,58.90
2023-04-05T14:17:26.396Z,57.50
2023-04-05T14:22:32.717Z,56.00
2023-04-05T14:27:41.407Z,57.40
2023-04-05T14:32:45.852Z,55.40
2023-04-05T14:37:51.235Z,53.70
2023-04-05T14:42:55.282Z,54.30
2023-04-05T14:47:59.105Z,51.80
2023-04-05T14:53:04.280Z,52.00
2023-04-05T14:58:07.743Z,55.00
2023-04-05T15:03:12.081Z,56.40
2023-04-05T15:08:17.294Z,52.30
2023-04-05T15:13:21.912Z,52.70
2023-04-05T15:18:25.794Z,54.90
2023-04-05T15:23:31.832Z,53.50
2023-04-05T15:28:36.056Z,54.40
2023-04-05T15:33:40.309Z,54.40
2023-04-05T15:38:45.726Z,56.50
2023-04-05T15:43:50.353Z,62.00
2023-04-05T15:48:54.268Z,62.80
2023-04-05T15:53:59.801Z,63.30
2023-04-05T15:59:04.862Z,63.10
2023-04-05T16:04:11.036Z,65.60
2023-04-05T16:09:16.686Z,68.50
2023-04-05T16:14:20.633Z,67.20
2023-04-05T16:19:24.693Z,67.70
2023-04-05T16:24:30.361Z,67.00
2023-04-05T16:29:34.072Z,67.00
2023-04-05T16:34:38.815Z,68.30
2023-04-05T16:39:44.174Z,69.80
2023-04-05T16:44:48.950Z,70.70
2023-04-05T16:49:53.026Z,69.90
2023-04-05T16:54:58.890Z,69.50
2023-04-05T17:00:03.420Z,70.60
2023-04-05T17:05:08.892Z,72.90
2023-04-05T17:10:15.668Z,72.50
2023-04-05T17:15:19.748Z,73.20
2023-04-05T17:20:24.076Z,75.60
2023-04-05T17:25:29.246Z,76.10
2023-04-05T17:30:33.027Z,75.70
2023-04-05T17:35:38.132Z,75.80
2023-04-05T17:40:43.456Z,77.70
2023-04-05T17:45:47.445Z,78.60
2023-04-05T17:50:51.854Z,78.40
2023-04-05T17:55:59.798Z,79.20
2023-04-05T18:01:04.481Z,79.70
2023-04-05T18:06:08.895Z,80.00
2023-04-05T18:11:14.446Z,80.20
2023-04-05T18:16:18.999Z,80.10
2023-04-05T18:21:23.038Z,80.30
2023-04-05T18:26:28.571Z,80.80
2023-04-05T18:31:32.992Z,82.60
2023-04-05T18:36:39.690Z,81.70
2023-04-05T18:41:45.197Z,83.30
2023-04-05T18:46:49.804Z,82.80
2023-04-05T18:51:56.072Z,84.10
2023-04-05T18:57:01.602Z,82.90
2023-04-05T19:02:06.780Z,84.10
2023-04-05T19:07:11.186Z,83.90
2023-04-05T19:12:17.104Z,84.80
2023-04-05T19:17:20.960Z,85.60
2023-04-05T19:22:24.823Z,85.00
2023-04-05T19:27:35.138Z,86.60
2023-04-05T19:32:39.477Z,87.60
2023-04-05T19:37:43.291Z,88.70
2023-04-05T19:42:48.962Z,90.20
2023-04-05T19:47:53.442Z,90.80
2023-04-05T19:52:58.322Z,91.80
2023-04-05T19:58:07.210Z,93.00
2023-04-05T20:03:29.144Z,94.30
2023-04-05T20:08:34.353Z,96.00
2023-04-05T20:13:42.798Z,97.10
2023-04-05T20:18:48.321Z,97.80
2023-04-05T20:23:53.762Z,98.30
2023-04-05T20:29:02.028Z,99.20
2023-04-05T20:34:10.202Z,98.80
2023-04-05T20:39:14.652Z,98.00
2023-04-05T20:44:20.329Z,98.30
2023-04-05T20:49:24.425Z,99.70
2023-04-05T20:54:29.431Z,99.90
2023-04-05T20:59:35.149Z,99.90
2023-04-05T21:04:40.480Z,99.90
2023-04-05T21:09:44.083Z,99.90
2023-04-05T21:14:48.991Z,99.90
2023-04-05T21:19:52.576Z,99.90
2023-04-05T21:24:56.081Z,99.90
2023-04-05T21:30:00.939Z,99.90
2023-04-05T21:35:05.785Z,99.90
2023-04-05T21:40:10.343Z,99.90
2023-04-05T21:45:15.529Z,99.90
2023-04-05T21:50:19.899Z,99.90
2023-04-05T21:55:24.062Z,99.90
2023-04-05T22:00:29.441Z,99.90
2023-04-05T22:05:38.405Z,99.90
2023-04-05T22:10:43.871Z,99.90
2023-04-05T22:15:48.976Z,99.90
2023-04-05T22:20:52.724Z,99.90
2023-04-05T22:25:56.491Z,99.90
2023-04-05T22:31:01.782Z,99.90
2023-04-05T22:36:05.995Z,99.90
2023-04-05T22:41:10.141Z,99.90
2023-04-05T22:46:15.272Z,99.90
2023-04-05T22:51:19.776Z,99.90
2023-04-05T22:56:24.164Z,99.90
2023-04-05T23:01:29.202Z,99.90
2023-04-05T23:06:33.426Z,99.90
2023-04-05T23:11:37.669Z,99.90
2023-04-05T23:16:42.544Z,99.90
2023-04-05T23:21:46.057Z,99.90
2023-04-05T23:26:49.667Z,99.90
2023-04-05T23:31:55.028Z,99.90
2023-04-05T23:36:58.543Z,99.90
2023-04-05T23:42:02.744Z,99.90
2023-04-05T23:47:07.777Z,99.90
2023-04-05T23:52:11.861Z,99.90
2023-04-05T23:57:15.881Z,99.90
